sensor_id;sensor_type;location;lat;lon;timestamp;P1;durP1;ratioP1;P2;durP2;ratioP2
85559;SDS011;76003;49.038;16.594;2024-02-28T00:01:19;27.92;;;18.05;;
85559;SDS011;76003;49.038;16.594;2024-02-28T00:03:59;29.77;;;16.95;;
85559;SDS011;76003;49.038;16.594;2024-02-28T00:06:40;29.23;;;17.20;;
85559;SDS011;76003;49.038;16.594;2024-02-28T00:09:21;31.77;;;16.98;;
85559;SDS011;76003;49.038;16.594;2024-02-28T00:12:02;32.63;;;18.55;;
85559;SDS011;76003;49.038;16.594;2024-02-28T00:14:28;28.67;;;17.45;;
85559;SDS011;76003;49.038;16.594;2024-02-28T00:17:14;32.42;;;18.60;;
85559;SDS011;76003;49.038;16.594;2024-02-28T00:19:40;30.65;;;18.50;;
85559;SDS011;76003;49.038;16.594;2024-02-28T00:22:28;34.10;;;17.52;;
85559;SDS011;76003;49.038;16.594;2024-02-28T00:25:53;30.63;;;16.92;;
85559;SDS011;76003;49.038;16.594;2024-02-28T00:29:18;27.90;;;17.10;;
85559;SDS011;76003;49.038;16.594;2024-02-28T00:31:45;28.13;;;17.02;;
85559;SDS011;76003;49.038;16.594;2024-02-28T00:34:31;27.88;;;16.50;;
85559;SDS011;76003;49.038;16.594;2024-02-28T00:37:11;31.23;;;17.25;;
85559;SDS011;76003;49.038;16.594;2024-02-28T00:39:52;30.70;;;16.42;;
85559;SDS011;76003;49.038;16.594;2024-02-28T00:42:18;30.27;;;16.80;;
85559;SDS011;76003;49.038;16.594;2024-02-28T00:44:59;31.77;;;17.77;;
85559;SDS011;76003;49.038;16.594;2024-02-28T00:47:24;37.30;;;20.73;;
85559;SDS011;76003;49.038;16.594;2024-02-28T00:49:51;33.75;;;19.60;;
85559;SDS011;76003;49.038;16.594;2024-02-28T00:52:37;37.25;;;19.08;;
85559;SDS011;76003;49.038;16.594;2024-02-28T00:55:03;32.88;;;19.13;;
85559;SDS011;76003;49.038;16.594;2024-02-28T00:58:07;34.78;;;18.33;;
85559;SDS011;76003;49.038;16.594;2024-02-28T01:00:48;31.23;;;17.40;;
85559;SDS011;76003;49.038;16.594;2024-02-28T01:03:28;33.95;;;18.65;;
85559;SDS011;76003;49.038;16.594;2024-02-28T01:06:09;32.88;;;18.92;;
85559;SDS011;76003;49.038;16.594;2024-02-28T01:08:35;37.78;;;20.10;;
85559;SDS011;76003;49.038;16.594;2024-02-28T01:11:21;35.53;;;20.35;;
85559;SDS011;76003;49.038;16.594;2024-02-28T01:16:42;37.20;;;19.65;;
85559;SDS011;76003;49.038;16.594;2024-02-28T01:19:08;32.15;;;19.77;;
85559;SDS011;76003;49.038;16.594;2024-02-28T01:22:50;35.63;;;19.95;;
85559;SDS011;76003;49.038;16.594;2024-02-28T01:25:16;38.78;;;19.10;;
85559;SDS011;76003;49.038;16.594;2024-02-28T01:28:03;36.92;;;20.65;;
85559;SDS011;76003;49.038;16.594;2024-02-28T01:30:30;35.13;;;20.38;;
85559;SDS011;76003;49.038;16.594;2024-02-28T01:33:16;36.13;;;19.65;;
85559;SDS011;76003;49.038;16.594;2024-02-28T01:35:57;36.10;;;19.25;;
85559;SDS011;76003;49.038;16.594;2024-02-28T01:38:39;37.75;;;20.67;;
85559;SDS011;76003;49.038;16.594;2024-02-28T01:41:20;39.03;;;21.77;;
85559;SDS011;76003;49.038;16.594;2024-02-28T01:44:00;36.53;;;21.70;;
85559;SDS011;76003;49.038;16.594;2024-02-28T01:46:41;42.40;;;21.65;;
85559;SDS011;76003;49.038;16.594;2024-02-28T01:51:48;41.55;;;22.08;;
85559;SDS011;76003;49.038;16.594;2024-02-28T01:54:35;41.17;;;21.60;;
85559;SDS011;76003;49.038;16.594;2024-02-28T01:57:02;43.30;;;22.48;;
85559;SDS011;76003;49.038;16.594;2024-02-28T01:59:57;37.70;;;21.45;;
85559;SDS011;76003;49.038;16.594;2024-02-28T02:02:24;40.78;;;22.42;;
85559;SDS011;76003;49.038;16.594;2024-02-28T02:05:20;42.90;;;23.90;;
85559;SDS011;76003;49.038;16.594;2024-02-28T02:07:48;45.80;;;22.13;;
85559;SDS011;76003;49.038;16.594;2024-02-28T02:10:50;49.58;;;24.20;;
85559;SDS011;76003;49.038;16.594;2024-02-28T02:13:16;43.33;;;23.88;;
85559;SDS011;76003;49.038;16.594;2024-02-28T02:15:41;45.15;;;22.58;;
85559;SDS011;76003;49.038;16.594;2024-02-28T02:18:06;42.58;;;22.20;;
85559;SDS011;76003;49.038;16.594;2024-02-28T02:20:32;41.83;;;23.67;;
85559;SDS011;76003;49.038;16.594;2024-02-28T02:23:00;42.72;;;21.02;;
85559;SDS011;76003;49.038;16.594;2024-02-28T02:25:26;41.95;;;21.95;;
85559;SDS011;76003;49.038;16.594;2024-02-28T02:27:51;38.72;;;22.13;;
85559;SDS011;76003;49.038;16.594;2024-02-28T02:30:16;48.00;;;24.27;;
85559;SDS011;76003;49.038;16.594;2024-02-28T02:32:42;45.33;;;23.60;;
85559;SDS011;76003;49.038;16.594;2024-02-28T02:35:28;41.63;;;22.48;;
85559;SDS011;76003;49.038;16.594;2024-02-28T02:37:54;36.40;;;20.80;;
85559;SDS011;76003;49.038;16.594;2024-02-28T02:40:41;41.15;;;21.60;;
85559;SDS011;76003;49.038;16.594;2024-02-28T02:43:07;44.22;;;21.50;;
85559;SDS011;76003;49.038;16.594;2024-02-28T02:45:53;40.67;;;22.33;;
85559;SDS011;76003;49.038;16.594;2024-02-28T02:50:59;48.95;;;22.80;;
85559;SDS011;76003;49.038;16.594;2024-02-28T02:54:41;40.10;;;21.35;;
85559;SDS011;76003;49.038;16.594;2024-02-28T02:58:07;42.28;;;20.60;;
85559;SDS011;76003;49.038;16.594;2024-02-28T03:01:32;40.42;;;21.42;;
85559;SDS011;76003;49.038;16.594;2024-02-28T03:04:57;41.55;;;21.55;;
85559;SDS011;76003;49.038;16.594;2024-02-28T03:07:26;37.28;;;20.77;;
85559;SDS011;76003;49.038;16.594;2024-02-28T03:10:29;49.95;;;24.92;;
85559;SDS011;76003;49.038;16.594;2024-02-28T03:12:54;42.28;;;23.55;;
85559;SDS011;76003;49.038;16.594;2024-02-28T03:15:41;40.53;;;21.65;;
85559;SDS011;76003;49.038;16.594;2024-02-28T03:18:07;47.20;;;23.42;;
85559;SDS011;76003;49.038;16.594;2024-02-28T03:20:53;54.67;;;26.23;;
85559;SDS011;76003;49.038;16.594;2024-02-28T03:23:34;50.88;;;24.83;;
85559;SDS011;76003;49.038;16.594;2024-02-28T03:26:16;47.03;;;22.02;;
85559;SDS011;76003;49.038;16.594;2024-02-28T03:31:22;39.70;;;20.02;;
85559;SDS011;76003;49.038;16.594;2024-02-28T03:36:28;44.70;;;23.03;;
85559;SDS011;76003;49.038;16.594;2024-02-28T03:38:54;49.17;;;23.80;;
85559;SDS011;76003;49.038;16.594;2024-02-28T03:41:19;45.38;;;23.20;;
85559;SDS011;76003;49.038;16.594;2024-02-28T03:43:44;54.65;;;25.25;;
85559;SDS011;76003;49.038;16.594;2024-02-28T03:46:10;52.65;;;25.15;;
85559;SDS011;76003;49.038;16.594;2024-02-28T03:48:36;49.78;;;23.70;;
85559;SDS011;76003;49.038;16.594;2024-02-28T03:51:22;48.75;;;23.75;;
85559;SDS011;76003;49.038;16.594;2024-02-28T03:53:48;47.95;;;24.30;;
85559;SDS011;76003;49.038;16.594;2024-02-28T03:56:34;59.00;;;29.45;;
85559;SDS011;76003;49.038;16.594;2024-02-28T03:59:01;56.63;;;28.77;;
85559;SDS011;76003;49.038;16.594;2024-02-28T04:02:03;44.38;;;23.45;;
85559;SDS011;76003;49.038;16.594;2024-02-28T04:05:29;57.92;;;24.90;;
85559;SDS011;76003;49.038;16.594;2024-02-28T04:07:55;58.72;;;26.73;;
85559;SDS011;76003;49.038;16.594;2024-02-28T04:11:37;56.40;;;27.38;;
85559;SDS011;76003;49.038;16.594;2024-02-28T04:14:18;57.08;;;25.85;;
85559;SDS011;76003;49.038;16.594;2024-02-28T04:19:39;58.25;;;27.05;;
85559;SDS011;76003;49.038;16.594;2024-02-28T04:22:20;57.78;;;29.55;;
85559;SDS011;76003;49.038;16.594;2024-02-28T04:24:46;65.07;;;28.02;;
85559;SDS011;76003;49.038;16.594;2024-02-28T04:27:32;65.30;;;29.35;;
85559;SDS011;76003;49.038;16.594;2024-02-28T04:29:58;58.40;;;27.10;;
85559;SDS011;76003;49.038;16.594;2024-02-28T04:32:44;55.55;;;27.50;;
85559;SDS011;76003;49.038;16.594;2024-02-28T04:35:25;57.17;;;26.05;;
85559;SDS011;76003;49.038;16.594;2024-02-28T04:40:31;61.78;;;27.02;;
85559;SDS011;76003;49.038;16.594;2024-02-28T04:43:17;53.67;;;26.67;;
85559;SDS011;76003;49.038;16.594;2024-02-28T04:45:44;54.55;;;27.50;;
85559;SDS011;76003;49.038;16.594;2024-02-28T04:49:25;49.67;;;24.70;;
85559;SDS011;76003;49.038;16.594;2024-02-28T04:52:51;45.30;;;24.88;;
85559;SDS011;76003;49.038;16.594;2024-02-28T04:56:16;44.72;;;22.85;;
85559;SDS011;76003;49.038;16.594;2024-02-28T04:59:29;50.97;;;24.92;;
85559;SDS011;76003;49.038;16.594;2024-02-28T05:01:56;45.25;;;23.17;;
85559;SDS011;76003;49.038;16.594;2024-02-28T05:04:42;45.92;;;24.00;;
85559;SDS011;76003;49.038;16.594;2024-02-28T05:07:08;50.20;;;25.60;;
85559;SDS011;76003;49.038;16.594;2024-02-28T05:09:55;40.67;;;22.27;;
85559;SDS011;76003;49.038;16.594;2024-02-28T05:13:20;38.95;;;22.10;;
85559;SDS011;76003;49.038;16.594;2024-02-28T05:15:48;45.13;;;22.58;;
85559;SDS011;76003;49.038;16.594;2024-02-28T05:19:30;39.63;;;21.17;;
85559;SDS011;76003;49.038;16.594;2024-02-28T05:21:56;42.67;;;21.90;;
85559;SDS011;76003;49.038;16.594;2024-02-28T05:24:45;42.35;;;21.27;;
85559;SDS011;76003;49.038;16.594;2024-02-28T05:28:11;40.58;;;21.02;;
85559;SDS011;76003;49.038;16.594;2024-02-28T05:35:03;42.80;;;21.00;;
85559;SDS011;76003;49.038;16.594;2024-02-28T05:37:30;39.00;;;21.55;;
85559;SDS011;76003;49.038;16.594;2024-02-28T05:40:32;44.05;;;21.30;;
85559;SDS011;76003;49.038;16.594;2024-02-28T05:42:58;44.50;;;22.98;;
85559;SDS011;76003;49.038;16.594;2024-02-28T05:45:44;41.35;;;20.98;;
85559;SDS011;76003;49.038;16.594;2024-02-28T05:48:10;35.75;;;19.80;;
85559;SDS011;76003;49.038;16.594;2024-02-28T05:50:56;41.80;;;22.00;;
85559;SDS011;76003;49.038;16.594;2024-02-28T05:53:22;43.92;;;22.25;;
85559;SDS011;76003;49.038;16.594;2024-02-28T05:55:51;35.40;;;22.45;;
85559;SDS011;76003;49.038;16.594;2024-02-28T05:58:19;42.28;;;22.65;;
85559;SDS011;76003;49.038;16.594;2024-02-28T06:02:01;40.60;;;21.52;;
85559;SDS011;76003;49.038;16.594;2024-02-28T06:04:41;45.80;;;23.00;;
85559;SDS011;76003;49.038;16.594;2024-02-28T06:07:22;49.30;;;25.00;;
85559;SDS011;76003;49.038;16.594;2024-02-28T06:15:16;40.78;;;21.30;;
85559;SDS011;76003;49.038;16.594;2024-02-28T06:17:43;41.42;;;21.75;;
85559;SDS011;76003;49.038;16.594;2024-02-28T06:20:45;35.75;;;20.75;;
85559;SDS011;76003;49.038;16.594;2024-02-28T06:23:11;33.30;;;18.83;;
85559;SDS011;76003;49.038;16.594;2024-02-28T06:25:58;39.83;;;21.38;;
85559;SDS011;76003;49.038;16.594;2024-02-28T06:28:38;34.53;;;18.67;;
85559;SDS011;76003;49.038;16.594;2024-02-28T06:31:19;36.47;;;19.17;;
85559;SDS011;76003;49.038;16.594;2024-02-28T06:33:45;32.88;;;18.45;;
85559;SDS011;76003;49.038;16.594;2024-02-28T06:37:27;39.88;;;21.17;;
85559;SDS011;76003;49.038;16.594;2024-02-28T06:40:08;38.22;;;20.30;;
85559;SDS011;76003;49.038;16.594;2024-02-28T06:45:15;33.70;;;19.67;;
85559;SDS011;76003;49.038;16.594;2024-02-28T06:48:01;38.10;;;20.55;;
85559;SDS011;76003;49.038;16.594;2024-02-28T06:50:43;43.10;;;22.58;;
85559;SDS011;76003;49.038;16.594;2024-02-28T06:53:09;38.65;;;20.88;;
85559;SDS011;76003;49.038;16.594;2024-02-28T06:56:11;30.63;;;17.00;;
85559;SDS011;76003;49.038;16.594;2024-02-28T06:58:37;35.42;;;17.98;;
85559;SDS011;76003;49.038;16.594;2024-02-28T07:01:23;29.85;;;16.00;;
85559;SDS011;76003;49.038;16.594;2024-02-28T07:04:04;30.30;;;16.65;;
85559;SDS011;76003;49.038;16.594;2024-02-28T07:06:45;38.10;;;20.38;;
85559;SDS011;76003;49.038;16.594;2024-02-28T07:09:11;34.85;;;18.88;;
85559;SDS011;76003;49.038;16.594;2024-02-28T07:12:15;34.20;;;19.73;;
85559;SDS011;76003;49.038;16.594;2024-02-28T07:14:40;32.90;;;19.20;;
85559;SDS011;76003;49.038;16.594;2024-02-28T07:17:05;30.27;;;18.80;;
85559;SDS011;76003;49.038;16.594;2024-02-28T07:19:32;32.67;;;16.20;;
85559;SDS011;76003;49.038;16.594;2024-02-28T07:21:58;27.80;;;17.45;;
85559;SDS011;76003;49.038;16.594;2024-02-28T07:24:44;28.45;;;17.77;;
85559;SDS011;76003;49.038;16.594;2024-02-28T07:27:30;32.38;;;19.75;;
85559;SDS011;76003;49.038;16.594;2024-02-28T07:29:56;35.35;;;20.00;;
85559;SDS011;76003;49.038;16.594;2024-02-28T07:32:42;32.63;;;20.25;;
85559;SDS011;76003;49.038;16.594;2024-02-28T07:35:08;30.98;;;19.00;;
85559;SDS011;76003;49.038;16.594;2024-02-28T07:37:55;29.98;;;19.80;;
85559;SDS011;76003;49.038;16.594;2024-02-28T07:40:20;35.35;;;19.02;;
85559;SDS011;76003;49.038;16.594;2024-02-28T07:43:07;30.30;;;16.58;;
85559;SDS011;76003;49.038;16.594;2024-02-28T07:45:33;34.00;;;17.13;;
85559;SDS011;76003;49.038;16.594;2024-02-28T07:50:39;38.13;;;19.63;;
85559;SDS011;76003;49.038;16.594;2024-02-28T07:55:32;33.70;;;18.00;;
85559;SDS011;76003;49.038;16.594;2024-02-28T07:57:58;29.95;;;16.38;;
85559;SDS011;76003;49.038;16.594;2024-02-28T08:00:23;37.25;;;20.20;;
85559;SDS011;76003;49.038;16.594;2024-02-28T08:02:50;38.08;;;18.92;;
85559;SDS011;76003;49.038;16.594;2024-02-28T08:05:16;30.58;;;17.27;;
85559;SDS011;76003;49.038;16.594;2024-02-28T08:08:20;31.25;;;16.42;;
85559;SDS011;76003;49.038;16.594;2024-02-28T08:10:46;29.85;;;17.88;;
85559;SDS011;76003;49.038;16.594;2024-02-28T08:13:34;36.65;;;19.90;;
85559;SDS011;76003;49.038;16.594;2024-02-28T08:17:00;29.58;;;17.40;;
85559;SDS011;76003;49.038;16.594;2024-02-28T08:20:16;34.88;;;17.00;;
85559;SDS011;76003;49.038;16.594;2024-02-28T08:22:43;36.90;;;18.80;;
85559;SDS011;76003;49.038;16.594;2024-02-28T08:25:29;30.92;;;18.17;;
85559;SDS011;76003;49.038;16.594;2024-02-28T08:27:55;33.50;;;16.52;;
85559;SDS011;76003;49.038;16.594;2024-02-28T08:31:41;34.08;;;18.48;;
85559;SDS011;76003;49.038;16.594;2024-02-28T08:34:23;42.90;;;19.40;;
85559;SDS011;76003;49.038;16.594;2024-02-28T08:39:44;36.10;;;21.13;;
85559;SDS011;76003;49.038;16.594;2024-02-28T08:42:11;35.30;;;19.48;;
85559;SDS011;76003;49.038;16.594;2024-02-28T08:45:14;36.40;;;19.73;;
85559;SDS011;76003;49.038;16.594;2024-02-28T08:47:41;40.00;;;22.48;;
85559;SDS011;76003;49.038;16.594;2024-02-28T08:50:27;38.67;;;22.13;;
85559;SDS011;76003;49.038;16.594;2024-02-28T08:53:54;39.97;;;24.23;;
85559;SDS011;76003;49.038;16.594;2024-02-28T08:57:20;43.63;;;21.70;;
85559;SDS011;76003;49.038;16.594;2024-02-28T08:59:47;34.45;;;20.00;;
85559;SDS011;76003;49.038;16.594;2024-02-28T09:02:34;39.92;;;22.40;;
85559;SDS011;76003;49.038;16.594;2024-02-28T09:05:00;48.10;;;24.27;;
85559;SDS011;76003;49.038;16.594;2024-02-28T09:08:03;42.33;;;20.15;;
85559;SDS011;76003;49.038;16.594;2024-02-28T09:11:29;40.97;;;21.38;;
85559;SDS011;76003;49.038;16.594;2024-02-28T09:14:54;45.30;;;22.42;;
85559;SDS011;76003;49.038;16.594;2024-02-28T09:17:23;40.63;;;19.77;;
85559;SDS011;76003;49.038;16.594;2024-02-28T09:21:07;39.40;;;19.52;;
85559;SDS011;76003;49.038;16.594;2024-02-28T09:23:48;41.17;;;23.90;;
85559;SDS011;76003;49.038;16.594;2024-02-28T09:26:29;41.38;;;21.35;;
85559;SDS011;76003;49.038;16.594;2024-02-28T09:28:55;46.40;;;25.13;;
85559;SDS011;76003;49.038;16.594;2024-02-28T09:31:41;44.85;;;22.83;;
85559;SDS011;76003;49.038;16.594;2024-02-28T09:34:22;46.92;;;22.15;;
85559;SDS011;76003;49.038;16.594;2024-02-28T09:36:48;43.15;;;21.58;;
85559;SDS011;76003;49.038;16.594;2024-02-28T09:39:37;47.67;;;20.17;;
85559;SDS011;76003;49.038;16.594;2024-02-28T09:42:05;43.42;;;19.25;;
85559;SDS011;76003;49.038;16.594;2024-02-28T09:44:55;43.15;;;22.73;;
85559;SDS011;76003;49.038;16.594;2024-02-28T09:47:21;50.60;;;22.77;;
85559;SDS011;76003;49.038;16.594;2024-02-28T09:49:47;41.42;;;19.45;;
85559;SDS011;76003;49.038;16.594;2024-02-28T09:52:17;50.83;;;24.48;;
85559;SDS011;76003;49.038;16.594;2024-02-28T09:55:20;47.25;;;22.98;;
85559;SDS011;76003;49.038;16.594;2024-02-28T09:58:45;57.20;;;26.38;;
85559;SDS011;76003;49.038;16.594;2024-02-28T10:02:11;60.50;;;28.38;;
85559;SDS011;76003;49.038;16.594;2024-02-28T10:04:38;46.63;;;24.60;;
85559;SDS011;76003;49.038;16.594;2024-02-28T10:07:25;51.72;;;25.50;;
85559;SDS011;76003;49.038;16.594;2024-02-28T10:10:52;51.78;;;24.42;;
85559;SDS011;76003;49.038;16.594;2024-02-28T10:14:19;53.78;;;26.02;;
85559;SDS011;76003;49.038;16.594;2024-02-28T10:16:52;46.25;;;24.88;;
85559;SDS011;76003;49.038;16.594;2024-02-28T10:19:38;51.67;;;23.88;;
85559;SDS011;76003;49.038;16.594;2024-02-28T10:22:04;48.70;;;23.25;;
85559;SDS011;76003;49.038;16.594;2024-02-28T10:25:47;46.20;;;19.90;;
85559;SDS011;76003;49.038;16.594;2024-02-28T10:28:14;43.55;;;23.33;;
85559;SDS011;76003;49.038;16.594;2024-02-28T10:31:01;53.97;;;23.15;;
85559;SDS011;76003;49.038;16.594;2024-02-28T10:34:27;57.35;;;26.77;;
85559;SDS011;76003;49.038;16.594;2024-02-28T10:37:53;50.30;;;23.85;;
85559;SDS011;76003;49.038;16.594;2024-02-28T10:40:21;46.03;;;24.30;;
85559;SDS011;76003;49.038;16.594;2024-02-28T10:43:25;51.83;;;24.48;;
85559;SDS011;76003;49.038;16.594;2024-02-28T10:46:54;45.63;;;22.95;;
85559;SDS011;76003;49.038;16.594;2024-02-28T10:50:23;43.10;;;21.67;;
85559;SDS011;76003;49.038;16.594;2024-02-28T10:53:07;39.78;;;20.60;;
85559;SDS011;76003;49.038;16.594;2024-02-28T10:55:43;43.28;;;22.80;;
85559;SDS011;76003;49.038;16.594;2024-02-28T10:58:35;41.50;;;21.77;;
85559;SDS011;76003;49.038;16.594;2024-02-28T11:01:02;43.95;;;22.27;;
85559;SDS011;76003;49.038;16.594;2024-02-28T11:04:45;44.38;;;21.85;;
85559;SDS011;76003;49.038;16.594;2024-02-28T11:08:24;35.83;;;20.23;;
85559;SDS011;76003;49.038;16.594;2024-02-28T11:11:53;36.88;;;19.52;;
85559;SDS011;76003;49.038;16.594;2024-02-28T11:15:15;37.25;;;20.58;;
85559;SDS011;76003;49.038;16.594;2024-02-28T11:17:42;43.15;;;22.05;;
85559;SDS011;76003;49.038;16.594;2024-02-28T11:20:32;43.03;;;23.48;;
85559;SDS011;76003;49.038;16.594;2024-02-28T11:22:59;40.20;;;23.50;;
85559;SDS011;76003;49.038;16.594;2024-02-28T11:26:41;37.00;;;19.73;;
85559;SDS011;76003;49.038;16.594;2024-02-28T11:29:26;36.03;;;19.95;;
85559;SDS011;76003;49.038;16.594;2024-02-28T11:31:54;39.53;;;22.75;;
85559;SDS011;76003;49.038;16.594;2024-02-28T11:34:41;41.20;;;23.10;;
85559;SDS011;76003;49.038;16.594;2024-02-28T11:37:10;34.47;;;20.35;;
85559;SDS011;76003;49.038;16.594;2024-02-28T11:40:13;40.28;;;21.40;;
85559;SDS011;76003;49.038;16.594;2024-02-28T11:42:57;37.30;;;20.58;;
85559;SDS011;76003;49.038;16.594;2024-02-28T11:45:39;33.85;;;20.25;;
85559;SDS011;76003;49.038;16.594;2024-02-28T11:49:06;41.53;;;20.20;;
85559;SDS011;76003;49.038;16.594;2024-02-28T11:51:47;39.17;;;20.60;;
85559;SDS011;76003;49.038;16.594;2024-02-28T11:54:13;42.88;;;22.70;;
85559;SDS011;76003;49.038;16.594;2024-02-28T11:57:00;45.40;;;23.55;;
85559;SDS011;76003;49.038;16.594;2024-02-28T11:59:41;39.88;;;18.75;;
85559;SDS011;76003;49.038;16.594;2024-02-28T12:02:22;39.78;;;19.98;;
85559;SDS011;76003;49.038;16.594;2024-02-28T12:04:51;43.15;;;22.13;;
85559;SDS011;76003;49.038;16.594;2024-02-28T12:07:38;45.05;;;22.45;;
85559;SDS011;76003;49.038;16.594;2024-02-28T12:10:05;42.67;;;19.90;;
85559;SDS011;76003;49.038;16.594;2024-02-28T12:12:52;38.53;;;19.95;;
85559;SDS011;76003;49.038;16.594;2024-02-28T12:15:33;33.63;;;19.98;;
85559;SDS011;76003;49.038;16.594;2024-02-28T12:18:17;33.53;;;18.92;;
85559;SDS011;76003;49.038;16.594;2024-02-28T12:20:57;36.42;;;19.42;;
85559;SDS011;76003;49.038;16.594;2024-02-28T12:23:38;40.80;;;20.73;;
85559;SDS011;76003;49.038;16.594;2024-02-28T12:26:04;33.25;;;19.00;;
85559;SDS011;76003;49.038;16.594;2024-02-28T12:28:45;36.13;;;18.52;;
85559;SDS011;76003;49.038;16.594;2024-02-28T12:31:11;32.40;;;17.08;;
85559;SDS011;76003;49.038;16.594;2024-02-28T12:33:59;30.63;;;13.57;;
85559;SDS011;76003;49.038;16.594;2024-02-28T12:36:40;27.02;;;14.98;;
85559;SDS011;76003;49.038;16.594;2024-02-28T12:39:22;24.08;;;15.07;;
85559;SDS011;76003;49.038;16.594;2024-02-28T12:41:48;31.95;;;17.52;;
85559;SDS011;76003;49.038;16.594;2024-02-28T12:44:34;32.15;;;17.02;;
85559;SDS011;76003;49.038;16.594;2024-02-28T12:47:00;32.90;;;17.48;;
85559;SDS011;76003;49.038;16.594;2024-02-28T12:50:04;26.73;;;14.77;;
85559;SDS011;76003;49.038;16.594;2024-02-28T12:52:32;28.88;;;14.45;;
85559;SDS011;76003;49.038;16.594;2024-02-28T12:55:13;26.48;;;14.43;;
85559;SDS011;76003;49.038;16.594;2024-02-28T12:57:40;23.05;;;14.43;;
85559;SDS011;76003;49.038;16.594;2024-02-28T13:01:21;23.25;;;13.73;;
85559;SDS011;76003;49.038;16.594;2024-02-28T13:04:02;26.55;;;14.65;;
85559;SDS011;76003;49.038;16.594;2024-02-28T13:06:29;20.77;;;12.73;;
85559;SDS011;76003;49.038;16.594;2024-02-28T13:09:15;23.48;;;14.75;;
85559;SDS011;76003;49.038;16.594;2024-02-28T13:11:56;24.42;;;13.70;;
85559;SDS011;76003;49.038;16.594;2024-02-28T13:14:37;23.02;;;13.15;;
85559;SDS011;76003;49.038;16.594;2024-02-28T13:17:02;21.77;;;13.38;;
85559;SDS011;76003;49.038;16.594;2024-02-28T13:19:51;18.20;;;13.00;;
85559;SDS011;76003;49.038;16.594;2024-02-28T13:22:17;21.75;;;12.70;;
85559;SDS011;76003;49.038;16.594;2024-02-28T13:25:04;19.13;;;11.60;;
85559;SDS011;76003;49.038;16.594;2024-02-28T13:27:29;18.35;;;10.55;;
85559;SDS011;76003;49.038;16.594;2024-02-28T13:29:55;19.15;;;10.05;;
85559;SDS011;76003;49.038;16.594;2024-02-28T13:32:20;19.90;;;12.30;;
85559;SDS011;76003;49.038;16.594;2024-02-28T13:35:01;14.63;;;10.93;;
85559;SDS011;76003;49.038;16.594;2024-02-28T13:37:42;20.58;;;11.15;;
85559;SDS011;76003;49.038;16.594;2024-02-28T13:40:23;18.70;;;11.02;;
85559;SDS011;76003;49.038;16.594;2024-02-28T13:42:49;16.98;;;11.32;;
85559;SDS011;76003;49.038;16.594;2024-02-28T13:45:35;17.75;;;10.13;;
85559;SDS011;76003;49.038;16.594;2024-02-28T13:48:24;18.42;;;11.13;;
85559;SDS011;76003;49.038;16.594;2024-02-28T13:51:05;18.92;;;11.23;;
85559;SDS011;76003;49.038;16.594;2024-02-28T13:53:31;17.95;;;11.80;;
85559;SDS011;76003;49.038;16.594;2024-02-28T13:56:35;21.23;;;11.82;;
85559;SDS011;76003;49.038;16.594;2024-02-28T13:59:15;18.48;;;12.13;;
85559;SDS011;76003;49.038;16.594;2024-02-28T14:01:41;19.65;;;12.20;;
85559;SDS011;76003;49.038;16.594;2024-02-28T14:04:27;15.85;;;10.57;;
85559;SDS011;76003;49.038;16.594;2024-02-28T14:06:54;17.13;;;10.38;;
85559;SDS011;76003;49.038;16.594;2024-02-28T14:10:35;16.90;;;10.82;;
85559;SDS011;76003;49.038;16.594;2024-02-28T14:13:17;16.00;;;9.60;;
85559;SDS011;76003;49.038;16.594;2024-02-28T14:15:59;17.25;;;9.85;;
85559;SDS011;76003;49.038;16.594;2024-02-28T14:18:25;16.50;;;10.50;;
85559;SDS011;76003;49.038;16.594;2024-02-28T14:21:11;13.77;;;8.02;;
85559;SDS011;76003;49.038;16.594;2024-02-28T14:23:51;15.15;;;9.55;;
85559;SDS011;76003;49.038;16.594;2024-02-28T14:26:32;15.02;;;8.65;;
85559;SDS011;76003;49.038;16.594;2024-02-28T14:28:58;15.07;;;9.52;;
85559;SDS011;76003;49.038;16.594;2024-02-28T14:32:01;17.60;;;10.02;;
85559;SDS011;76003;49.038;16.594;2024-02-28T14:34:27;13.75;;;9.25;;
85559;SDS011;76003;49.038;16.594;2024-02-28T14:36:57;18.27;;;9.98;;
85559;SDS011;76003;49.038;16.594;2024-02-28T14:40:00;13.90;;;9.10;;
85559;SDS011;76003;49.038;16.594;2024-02-28T14:42:48;15.00;;;12.35;;
85559;SDS011;76003;49.038;16.594;2024-02-28T14:45:29;16.73;;;11.35;;
85559;SDS011;76003;49.038;16.594;2024-02-28T14:48:11;14.73;;;10.15;;
85559;SDS011;76003;49.038;16.594;2024-02-28T14:50:37;14.98;;;9.50;;
85559;SDS011;76003;49.038;16.594;2024-02-28T14:53:27;16.67;;;10.13;;
85559;SDS011;76003;49.038;16.594;2024-02-28T14:56:08;14.68;;;9.88;;
85559;SDS011;76003;49.038;16.594;2024-02-28T14:58:48;14.88;;;10.02;;
85559;SDS011;76003;49.038;16.594;2024-02-28T15:01:29;16.13;;;9.13;;
85559;SDS011;76003;49.038;16.594;2024-02-28T15:03:55;12.98;;;9.80;;
85559;SDS011;76003;49.038;16.594;2024-02-28T15:06:41;15.50;;;8.90;;
85559;SDS011;76003;49.038;16.594;2024-02-28T15:09:22;14.27;;;8.40;;
85559;SDS011;76003;49.038;16.594;2024-02-28T15:11:48;14.88;;;8.68;;
85559;SDS011;76003;49.038;16.594;2024-02-28T15:14:35;16.27;;;9.20;;
85559;SDS011;76003;49.038;16.594;2024-02-28T15:17:15;17.48;;;10.57;;
85559;SDS011;76003;49.038;16.594;2024-02-28T15:19:56;18.83;;;11.20;;
85559;SDS011;76003;49.038;16.594;2024-02-28T15:22:37;17.63;;;10.77;;
85559;SDS011;76003;49.038;16.594;2024-02-28T15:25:03;18.00;;;11.10;;
85559;SDS011;76003;49.038;16.594;2024-02-28T15:27:50;15.80;;;9.43;;
85559;SDS011;76003;49.038;16.594;2024-02-28T15:30:31;12.05;;;8.65;;
85559;SDS011;76003;49.038;16.594;2024-02-28T15:33:11;14.40;;;8.23;;
85559;SDS011;76003;49.038;16.594;2024-02-28T15:35:53;16.27;;;9.60;;
85559;SDS011;76003;49.038;16.594;2024-02-28T15:38:34;16.92;;;10.07;;
85559;SDS011;76003;49.038;16.594;2024-02-28T15:41:00;20.40;;;12.95;;
85559;SDS011;76003;49.038;16.594;2024-02-28T15:43:47;16.67;;;10.63;;
85559;SDS011;76003;49.038;16.594;2024-02-28T15:48:53;22.92;;;12.93;;
85559;SDS011;76003;49.038;16.594;2024-02-28T15:51:39;21.85;;;13.95;;
85559;SDS011;76003;49.038;16.594;2024-02-28T15:54:19;18.55;;;12.02;;
85559;SDS011;76003;49.038;16.594;2024-02-28T15:57:00;13.13;;;10.02;;
85559;SDS011;76003;49.038;16.594;2024-02-28T16:02:07;17.80;;;10.30;;
85559;SDS011;76003;49.038;16.594;2024-02-28T16:04:55;16.90;;;10.15;;
85559;SDS011;76003;49.038;16.594;2024-02-28T16:07:36;16.55;;;11.07;;
85559;SDS011;76003;49.038;16.594;2024-02-28T16:10:16;16.75;;;11.40;;
85559;SDS011;76003;49.038;16.594;2024-02-28T16:12:57;19.13;;;11.63;;
85559;SDS011;76003;49.038;16.594;2024-02-28T16:15:38;23.85;;;12.95;;
85559;SDS011;76003;49.038;16.594;2024-02-28T16:18:04;20.77;;;11.52;;
85559;SDS011;76003;49.038;16.594;2024-02-28T16:23:17;22.05;;;12.18;;
85559;SDS011;76003;49.038;16.594;2024-02-28T16:26:20;19.90;;;12.18;;
85559;SDS011;76003;49.038;16.594;2024-02-28T16:29:01;20.95;;;12.95;;
85559;SDS011;76003;49.038;16.594;2024-02-28T16:31:41;24.35;;;13.82;;